sensor_id;sensor_type;location;lat;lon;timestamp;P1;durP1;ratioP1;P2;durP2;ratioP2
10100;SDS011;5090;51.258;4.436;2022-08-23T00:00:53;12.83;;;5.40;;
10100;SDS011;5090;51.258;4.436;2022-08-23T00:03:21;11.40;;;5.45;;
10100;SDS011;5090;51.258;4.436;2022-08-23T00:05:49;10.07;;;6.00;;
10100;SDS011;5090;51.258;4.436;2022-08-23T00:08:17;14.43;;;6.97;;
10100;SDS011;5090;51.258;4.436;2022-08-23T00:10:45;12.47;;;6.40;;
10100;SDS011;5090;51.258;4.436;2022-08-23T00:13:14;14.60;;;7.33;;
10100;SDS011;5090;51.258;4.436;2022-08-23T00:15:42;15.47;;;7.10;;
10100;SDS011;5090;51.258;4.436;2022-08-23T00:18:10;13.45;;;7.15;;
10100;SDS011;5090;51.258;4.436;2022-08-23T00:20:38;12.63;;;6.75;;
10100;SDS011;5090;51.258;4.436;2022-08-23T00:23:06;12.43;;;6.57;;
10100;SDS011;5090;51.258;4.436;2022-08-23T00:25:35;14.80;;;6.53;;
10100;SDS011;5090;51.258;4.436;2022-08-23T00:28:03;13.70;;;6.70;;
10100;SDS011;5090;51.258;4.436;2022-08-23T00:30:31;11.57;;;7.43;;
10100;SDS011;5090;51.258;4.436;2022-08-23T00:32:59;21.73;;;8.32;;
10100;SDS011;5090;51.258;4.436;2022-08-23T00:35:27;12.73;;;6.87;;
10100;SDS011;5090;51.258;4.436;2022-08-23T00:37:56;13.27;;;7.33;;
10100;SDS011;5090;51.258;4.436;2022-08-23T00:40:24;14.23;;;6.78;;
10100;SDS011;5090;51.258;4.436;2022-08-23T00:42:55;11.47;;;7.17;;
10100;SDS011;5090;51.258;4.436;2022-08-23T00:48:21;19.20;;;7.90;;
10100;SDS011;5090;51.258;4.436;2022-08-23T00:50:53;14.23;;;8.03;;
10100;SDS011;5090;51.258;4.436;2022-08-23T00:53:20;12.23;;;6.25;;
10100;SDS011;5090;51.258;4.436;2022-08-23T00:55:47;11.90;;;6.70;;
10100;SDS011;5090;51.258;4.436;2022-08-23T00:58:15;15.20;;;6.50;;
10100;SDS011;5090;51.258;4.436;2022-08-23T01:00:43;13.73;;;7.57;;
10100;SDS011;5090;51.258;4.436;2022-08-23T01:03:11;11.47;;;7.03;;
10100;SDS011;5090;51.258;4.436;2022-08-23T01:05:44;14.20;;;7.13;;
10100;SDS011;5090;51.258;4.436;2022-08-23T01:08:11;12.07;;;5.97;;
10100;SDS011;5090;51.258;4.436;2022-08-23T01:10:41;14.27;;;6.93;;
10100;SDS011;5090;51.258;4.436;2022-08-23T01:13:10;17.87;;;7.97;;
10100;SDS011;5090;51.258;4.436;2022-08-23T01:15:42;12.57;;;8.13;;
10100;SDS011;5090;51.258;4.436;2022-08-23T01:18:09;16.20;;;8.13;;
10100;SDS011;5090;51.258;4.436;2022-08-23T01:20:41;15.33;;;8.07;;
10100;SDS011;5090;51.258;4.436;2022-08-23T01:25:35;15.83;;;7.87;;
10100;SDS011;5090;51.258;4.436;2022-08-23T01:28:03;11.90;;;7.40;;
10100;SDS011;5090;51.258;4.436;2022-08-23T01:30:31;16.27;;;7.43;;
10100;SDS011;5090;51.258;4.436;2022-08-23T01:33:01;14.90;;;7.70;;
10100;SDS011;5090;51.258;4.436;2022-08-23T01:35:30;18.90;;;8.07;;
10100;SDS011;5090;51.258;4.436;2022-08-23T01:37:57;12.47;;;8.40;;
10100;SDS011;5090;51.258;4.436;2022-08-23T01:40:26;11.33;;;7.03;;
10100;SDS011;5090;51.258;4.436;2022-08-23T01:42:54;11.63;;;6.77;;
10100;SDS011;5090;51.258;4.436;2022-08-23T01:45:22;11.53;;;6.77;;
10100;SDS011;5090;51.258;4.436;2022-08-23T01:47:50;16.83;;;7.07;;
10100;SDS011;5090;51.258;4.436;2022-08-23T01:50:18;11.07;;;6.63;;
10100;SDS011;5090;51.258;4.436;2022-08-23T01:52:46;17.37;;;7.73;;
10100;SDS011;5090;51.258;4.436;2022-08-23T01:55:15;13.43;;;7.37;;
10100;SDS011;5090;51.258;4.436;2022-08-23T01:57:43;17.23;;;7.57;;
10100;SDS011;5090;51.258;4.436;2022-08-23T02:00:11;16.73;;;8.13;;
10100;SDS011;5090;51.258;4.436;2022-08-23T02:02:40;9.97;;;6.50;;
10100;SDS011;5090;51.258;4.436;2022-08-23T02:05:08;12.67;;;7.40;;
10100;SDS011;5090;51.258;4.436;2022-08-23T02:07:36;13.93;;;7.37;;
10100;SDS011;5090;51.258;4.436;2022-08-23T02:10:05;12.53;;;7.33;;
10100;SDS011;5090;51.258;4.436;2022-08-23T02:12:33;11.63;;;7.43;;
10100;SDS011;5090;51.258;4.436;2022-08-23T02:15:03;14.90;;;7.47;;
10100;SDS011;5090;51.258;4.436;2022-08-23T02:17:31;13.17;;;7.77;;
10100;SDS011;5090;51.258;4.436;2022-08-23T02:19:59;15.00;;;7.93;;
10100;SDS011;5090;51.258;4.436;2022-08-23T02:22:27;11.53;;;7.60;;
10100;SDS011;5090;51.258;4.436;2022-08-23T02:24:56;12.87;;;7.80;;
10100;SDS011;5090;51.258;4.436;2022-08-23T02:27:24;13.17;;;6.90;;
10100;SDS011;5090;51.258;4.436;2022-08-23T02:29:53;14.73;;;7.43;;
10100;SDS011;5090;51.258;4.436;2022-08-23T02:32:21;10.70;;;7.27;;
10100;SDS011;5090;51.258;4.436;2022-08-23T02:34:49;18.47;;;7.23;;
10100;SDS011;5090;51.258;4.436;2022-08-23T02:37:17;22.30;;;7.73;;
10100;SDS011;5090;51.258;4.436;2022-08-23T02:39:45;14.00;;;7.77;;
10100;SDS011;5090;51.258;4.436;2022-08-23T02:42:14;12.90;;;7.57;;
10100;SDS011;5090;51.258;4.436;2022-08-23T02:44:42;15.60;;;7.35;;
10100;SDS011;5090;51.258;4.436;2022-08-23T02:47:10;10.67;;;7.20;;
10100;SDS011;5090;51.258;4.436;2022-08-23T02:49:38;15.27;;;6.97;;
10100;SDS011;5090;51.258;4.436;2022-08-23T02:52:06;11.47;;;6.93;;
10100;SDS011;5090;51.258;4.436;2022-08-23T02:54:35;13.07;;;7.63;;
10100;SDS011;5090;51.258;4.436;2022-08-23T02:57:03;12.47;;;7.70;;
10100;SDS011;5090;51.258;4.436;2022-08-23T02:59:32;14.97;;;7.53;;
10100;SDS011;5090;51.258;4.436;2022-08-23T03:02:01;12.10;;;7.97;;
10100;SDS011;5090;51.258;4.436;2022-08-23T03:04:29;13.97;;;7.83;;
10100;SDS011;5090;51.258;4.436;2022-08-23T03:06:57;10.80;;;7.67;;
10100;SDS011;5090;51.258;4.436;2022-08-23T03:09:26;14.90;;;8.50;;
10100;SDS011;5090;51.258;4.436;2022-08-23T03:11:54;19.73;;;10.03;;
10100;SDS011;5090;51.258;4.436;2022-08-23T03:14:22;15.50;;;8.37;;
10100;SDS011;5090;51.258;4.436;2022-08-23T03:16:50;13.93;;;8.93;;
10100;SDS011;5090;51.258;4.436;2022-08-23T03:19:18;15.67;;;10.10;;
10100;SDS011;5090;51.258;4.436;2022-08-23T03:21:47;25.83;;;10.53;;
10100;SDS011;5090;51.258;4.436;2022-08-23T03:24:15;15.37;;;9.93;;
10100;SDS011;5090;51.258;4.436;2022-08-23T03:26:43;15.93;;;9.00;;
10100;SDS011;5090;51.258;4.436;2022-08-23T03:29:12;17.03;;;9.83;;
10100;SDS011;5090;51.258;4.436;2022-08-23T03:31:39;18.20;;;9.67;;
10100;SDS011;5090;51.258;4.436;2022-08-23T03:34:08;15.40;;;9.50;;
10100;SDS011;5090;51.258;4.436;2022-08-23T03:36:36;15.87;;;9.63;;
10100;SDS011;5090;51.258;4.436;2022-08-23T03:39:04;14.20;;;8.70;;
10100;SDS011;5090;51.258;4.436;2022-08-23T03:41:32;16.20;;;9.17;;
10100;SDS011;5090;51.258;4.436;2022-08-23T03:44:00;15.27;;;9.33;;
10100;SDS011;5090;51.258;4.436;2022-08-23T03:46:28;14.20;;;8.97;;
10100;SDS011;5090;51.258;4.436;2022-08-23T03:48:57;16.33;;;9.33;;
10100;SDS011;5090;51.258;4.436;2022-08-23T03:51:25;21.77;;;11.43;;
10100;SDS011;5090;51.258;4.436;2022-08-23T03:53:53;16.97;;;11.13;;
10100;SDS011;5090;51.258;4.436;2022-08-23T03:56:24;24.93;;;12.10;;
10100;SDS011;5090;51.258;4.436;2022-08-23T03:58:51;18.10;;;11.53;;
10100;SDS011;5090;51.258;4.436;2022-08-23T04:01:19;20.97;;;12.83;;
10100;SDS011;5090;51.258;4.436;2022-08-23T04:03:48;22.03;;;12.80;;
10100;SDS011;5090;51.258;4.436;2022-08-23T04:06:17;21.67;;;12.67;;
10100;SDS011;5090;51.258;4.436;2022-08-23T04:08:45;21.13;;;11.83;;
10100;SDS011;5090;51.258;4.436;2022-08-23T04:11:13;17.80;;;12.13;;
10100;SDS011;5090;51.258;4.436;2022-08-23T04:13:41;19.03;;;12.00;;
10100;SDS011;5090;51.258;4.436;2022-08-23T04:16:09;20.67;;;12.23;;
10100;SDS011;5090;51.258;4.436;2022-08-23T04:18:38;18.40;;;12.47;;
10100;SDS011;5090;51.258;4.436;2022-08-23T04:21:09;19.40;;;11.53;;
10100;SDS011;5090;51.258;4.436;2022-08-23T04:23:34;16.17;;;10.83;;
10100;SDS011;5090;51.258;4.436;2022-08-23T04:26:02;17.13;;;12.00;;
10100;SDS011;5090;51.258;4.436;2022-08-23T04:28:31;17.27;;;12.63;;
10100;SDS011;5090;51.258;4.436;2022-08-23T04:30:59;18.53;;;12.43;;
10100;SDS011;5090;51.258;4.436;2022-08-23T04:33:27;20.87;;;11.90;;
10100;SDS011;5090;51.258;4.436;2022-08-23T04:35:56;20.57;;;12.90;;
10100;SDS011;5090;51.258;4.436;2022-08-23T04:38:24;19.07;;;12.03;;
10100;SDS011;5090;51.258;4.436;2022-08-23T04:40:52;20.77;;;12.07;;
10100;SDS011;5090;51.258;4.436;2022-08-23T04:43:26;20.87;;;12.53;;
10100;SDS011;5090;51.258;4.436;2022-08-23T04:45:54;23.63;;;14.00;;
10100;SDS011;5090;51.258;4.436;2022-08-23T04:48:22;21.83;;;12.33;;
10100;SDS011;5090;51.258;4.436;2022-08-23T04:50:50;22.10;;;13.00;;
10100;SDS011;5090;51.258;4.436;2022-08-23T04:53:19;19.57;;;13.33;;
10100;SDS011;5090;51.258;4.436;2022-08-23T04:55:47;22.30;;;12.70;;
10100;SDS011;5090;51.258;4.436;2022-08-23T04:58:15;22.67;;;13.63;;
10100;SDS011;5090;51.258;4.436;2022-08-23T05:00:43;30.10;;;14.93;;
10100;SDS011;5090;51.258;4.436;2022-08-23T05:03:12;35.30;;;18.27;;
10100;SDS011;5090;51.258;4.436;2022-08-23T05:05:40;28.13;;;16.13;;
10100;SDS011;5090;51.258;4.436;2022-08-23T05:08:08;26.20;;;16.40;;
10100;SDS011;5090;51.258;4.436;2022-08-23T05:10:36;30.20;;;17.07;;
10100;SDS011;5090;51.258;4.436;2022-08-23T05:13:05;24.53;;;16.03;;
10100;SDS011;5090;51.258;4.436;2022-08-23T05:15:33;22.83;;;15.47;;
10100;SDS011;5090;51.258;4.436;2022-08-23T05:18:01;24.83;;;17.10;;
10100;SDS011;5090;51.258;4.436;2022-08-23T05:20:29;27.77;;;18.93;;
10100;SDS011;5090;51.258;4.436;2022-08-23T05:22:59;42.13;;;19.87;;
10100;SDS011;5090;51.258;4.436;2022-08-23T05:25:26;29.67;;;18.43;;
10100;SDS011;5090;51.258;4.436;2022-08-23T05:27:54;31.90;;;18.17;;
10100;SDS011;5090;51.258;4.436;2022-08-23T05:30:22;31.90;;;16.57;;
10100;SDS011;5090;51.258;4.436;2022-08-23T05:32:51;27.80;;;16.60;;
10100;SDS011;5090;51.258;4.436;2022-08-23T05:35:19;29.80;;;17.27;;
10100;SDS011;5090;51.258;4.436;2022-08-23T05:37:47;28.87;;;16.23;;
10100;SDS011;5090;51.258;4.436;2022-08-23T05:40:15;22.87;;;14.73;;
10100;SDS011;5090;51.258;4.436;2022-08-23T05:42:44;22.90;;;13.88;;
10100;SDS011;5090;51.258;4.436;2022-08-23T05:45:12;25.35;;;13.20;;
10100;SDS011;5090;51.258;4.436;2022-08-23T05:47:40;19.08;;;12.57;;
10100;SDS011;5090;51.258;4.436;2022-08-23T05:50:08;17.25;;;11.02;;
10100;SDS011;5090;51.258;4.436;2022-08-23T05:52:37;20.80;;;12.23;;
10100;SDS011;5090;51.258;4.436;2022-08-23T05:55:06;17.10;;;11.05;;
10100;SDS011;5090;51.258;4.436;2022-08-23T05:57:36;17.70;;;10.65;;
10100;SDS011;5090;51.258;4.436;2022-08-23T06:00:04;17.70;;;11.45;;
10100;SDS011;5090;51.258;4.436;2022-08-23T06:02:32;17.05;;;10.65;;
10100;SDS011;5090;51.258;4.436;2022-08-23T06:05:00;20.25;;;10.65;;
10100;SDS011;5090;51.258;4.436;2022-08-23T06:07:29;16.27;;;10.32;;
10100;SDS011;5090;51.258;4.436;2022-08-23T06:09:57;23.75;;;11.40;;
10100;SDS011;5090;51.258;4.436;2022-08-23T06:12:25;20.83;;;11.00;;
10100;SDS011;5090;51.258;4.436;2022-08-23T06:14:53;20.23;;;10.60;;
10100;SDS011;5090;51.258;4.436;2022-08-23T06:17:22;18.05;;;9.30;;
10100;SDS011;5090;51.258;4.436;2022-08-23T06:19:50;21.55;;;9.20;;
10100;SDS011;5090;51.258;4.436;2022-08-23T06:22:19;25.95;;;8.52;;
10100;SDS011;5090;51.258;4.436;2022-08-23T06:24:47;21.92;;;8.65;;
10100;SDS011;5090;51.258;4.436;2022-08-23T06:27:15;16.35;;;8.63;;
10100;SDS011;5090;51.258;4.436;2022-08-23T06:29:43;22.83;;;8.80;;
10100;SDS011;5090;51.258;4.436;2022-08-23T06:32:11;18.83;;;8.60;;
10100;SDS011;5090;51.258;4.436;2022-08-23T06:34:40;22.85;;;8.75;;
10100;SDS011;5090;51.258;4.436;2022-08-23T06:37:09;16.23;;;8.15;;
10100;SDS011;5090;51.258;4.436;2022-08-23T06:39:36;23.40;;;8.77;;
10100;SDS011;5090;51.258;4.436;2022-08-23T06:42:07;19.50;;;7.60;;
10100;SDS011;5090;51.258;4.436;2022-08-23T06:44:34;29.70;;;8.63;;
10100;SDS011;5090;51.258;4.436;2022-08-23T06:47:02;23.17;;;8.20;;
10100;SDS011;5090;51.258;4.436;2022-08-23T06:49:34;17.67;;;7.78;;
10100;SDS011;5090;51.258;4.436;2022-08-23T06:52:02;15.85;;;7.12;;
10100;SDS011;5090;51.258;4.436;2022-08-23T06:54:31;18.75;;;7.25;;
10100;SDS011;5090;51.258;4.436;2022-08-23T06:56:59;15.80;;;6.18;;
10100;SDS011;5090;51.258;4.436;2022-08-23T06:59:27;18.37;;;6.07;;
10100;SDS011;5090;51.258;4.436;2022-08-23T07:02:01;14.38;;;5.32;;
10100;SDS011;5090;51.258;4.436;2022-08-23T07:04:30;11.98;;;5.30;;
10100;SDS011;5090;51.258;4.436;2022-08-23T07:06:57;14.50;;;6.10;;
10100;SDS011;5090;51.258;4.436;2022-08-23T07:09:25;13.57;;;5.68;;
10100;SDS011;5090;51.258;4.436;2022-08-23T07:11:53;17.23;;;6.80;;
10100;SDS011;5090;51.258;4.436;2022-08-23T07:14:21;14.07;;;6.85;;
10100;SDS011;5090;51.258;4.436;2022-08-23T07:16:52;16.15;;;5.90;;
10100;SDS011;5090;51.258;4.436;2022-08-23T07:19:21;24.00;;;6.43;;
10100;SDS011;5090;51.258;4.436;2022-08-23T07:21:48;20.02;;;4.97;;
10100;SDS011;5090;51.258;4.436;2022-08-23T07:24:17;11.25;;;4.60;;
10100;SDS011;5090;51.258;4.436;2022-08-23T07:26:45;15.23;;;4.50;;
10100;SDS011;5090;51.258;4.436;2022-08-23T07:29:13;13.68;;;4.32;;
10100;SDS011;5090;51.258;4.436;2022-08-23T07:31:43;12.50;;;4.00;;
10100;SDS011;5090;51.258;4.436;2022-08-23T07:34:10;14.00;;;4.03;;
10100;SDS011;5090;51.258;4.436;2022-08-23T07:36:39;10.68;;;4.10;;
10100;SDS011;5090;51.258;4.436;2022-08-23T07:39:07;13.80;;;4.50;;
10100;SDS011;5090;51.258;4.436;2022-08-23T07:41:35;14.35;;;5.43;;
10100;SDS011;5090;51.258;4.436;2022-08-23T07:44:04;14.65;;;4.72;;
10100;SDS011;5090;51.258;4.436;2022-08-23T07:46:32;14.87;;;5.07;;
10100;SDS011;5090;51.258;4.436;2022-08-23T07:49:00;15.70;;;5.45;;
10100;SDS011;5090;51.258;4.436;2022-08-23T07:51:30;16.08;;;5.10;;
10100;SDS011;5090;51.258;4.436;2022-08-23T07:53:57;13.65;;;5.12;;
10100;SDS011;5090;51.258;4.436;2022-08-23T07:56:26;16.00;;;4.90;;
10100;SDS011;5090;51.258;4.436;2022-08-23T07:58:55;14.93;;;5.03;;
10100;SDS011;5090;51.258;4.436;2022-08-23T08:01:25;12.37;;;4.30;;
10100;SDS011;5090;51.258;4.436;2022-08-23T08:03:52;7.20;;;2.90;;
10100;SDS011;5090;51.258;4.436;2022-08-23T08:06:21;10.52;;;3.20;;
10100;SDS011;5090;51.258;4.436;2022-08-23T08:08:49;8.70;;;2.70;;
10100;SDS011;5090;51.258;4.436;2022-08-23T08:11:18;5.82;;;2.25;;
10100;SDS011;5090;51.258;4.436;2022-08-23T08:13:46;7.75;;;2.50;;
10100;SDS011;5090;51.258;4.436;2022-08-23T08:16:19;5.78;;;2.72;;
10100;SDS011;5090;51.258;4.436;2022-08-23T08:18:46;8.50;;;2.45;;
10100;SDS011;5090;51.258;4.436;2022-08-23T08:21:15;4.80;;;2.05;;
10100;SDS011;5090;51.258;4.436;2022-08-23T08:23:43;6.22;;;1.83;;
10100;SDS011;5090;51.258;4.436;2022-08-23T08:26:11;9.25;;;1.73;;
10100;SDS011;5090;51.258;4.436;2022-08-23T08:28:39;8.13;;;2.28;;
10100;SDS011;5090;51.258;4.436;2022-08-23T08:31:08;7.43;;;1.92;;
10100;SDS011;5090;51.258;4.436;2022-08-23T08:33:36;8.23;;;1.92;;
10100;SDS011;5090;51.258;4.436;2022-08-23T08:36:05;8.45;;;1.80;;
10100;SDS011;5090;51.258;4.436;2022-08-23T08:38:36;7.15;;;2.05;;
10100;SDS011;5090;51.258;4.436;2022-08-23T08:41:08;9.02;;;1.87;;
10100;SDS011;5090;51.258;4.436;2022-08-23T08:43:35;10.98;;;1.92;;
10100;SDS011;5090;51.258;4.436;2022-08-23T08:46:04;7.47;;;1.83;;
10100;SDS011;5090;51.258;4.436;2022-08-23T08:48:30;10.45;;;2.58;;
10100;SDS011;5090;51.258;4.436;2022-08-23T08:50:59;9.05;;;2.33;;
10100;SDS011;5090;51.258;4.436;2022-08-23T08:53:30;9.45;;;2.25;;
10100;SDS011;5090;51.258;4.436;2022-08-23T08:55:58;10.75;;;2.10;;
10100;SDS011;5090;51.258;4.436;2022-08-23T08:58:35;7.30;;;1.85;;
10100;SDS011;5090;51.258;4.436;2022-08-23T09:01:03;8.73;;;1.85;;
10100;SDS011;5090;51.258;4.436;2022-08-23T09:03:32;6.10;;;1.80;;
10100;SDS011;5090;51.258;4.436;2022-08-23T09:06:05;4.65;;;1.35;;
10100;SDS011;5090;51.258;4.436;2022-08-23T09:08:42;3.97;;;1.25;;
10100;SDS011;5090;51.258;4.436;2022-08-23T09:11:02;5.87;;;1.48;;
10100;SDS011;5090;51.258;4.436;2022-08-23T09:13:34;7.80;;;1.75;;
10100;SDS011;5090;51.258;4.436;2022-08-23T09:16:19;4.87;;;1.62;;
10100;SDS011;5090;51.258;4.436;2022-08-23T09:18:43;5.80;;;1.33;;
10100;SDS011;5090;51.258;4.436;2022-08-23T09:21:11;11.48;;;1.45;;
10100;SDS011;5090;51.258;4.436;2022-08-23T09:23:41;5.53;;;1.42;;
10100;SDS011;5090;51.258;4.436;2022-08-23T09:26:16;4.10;;;1.00;;
10100;SDS011;5090;51.258;4.436;2022-08-23T09:28:42;2.78;;;0.90;;
10100;SDS011;5090;51.258;4.436;2022-08-23T09:31:10;5.70;;;1.15;;
10100;SDS011;5090;51.258;4.436;2022-08-23T09:33:41;5.00;;;1.08;;
10100;SDS011;5090;51.258;4.436;2022-08-23T09:41:17;6.07;;;1.00;;
10100;SDS011;5090;51.258;4.436;2022-08-23T09:43:44;4.03;;;1.37;;
10100;SDS011;5090;51.258;4.436;2022-08-23T09:46:16;4.00;;;1.10;;
10100;SDS011;5090;51.258;4.436;2022-08-23T09:48:41;6.60;;;1.37;;
10100;SDS011;5090;51.258;4.436;2022-08-23T09:51:16;3.05;;;1.00;;
10100;SDS011;5090;51.258;4.436;2022-08-23T09:53:45;4.07;;;0.85;;
10100;SDS011;5090;51.258;4.436;2022-08-23T09:56:12;8.45;;;1.77;;
10100;SDS011;5090;51.258;4.436;2022-08-23T09:58:41;8.82;;;2.17;;
10100;SDS011;5090;51.258;4.436;2022-08-23T10:01:15;12.57;;;1.73;;
10100;SDS011;5090;51.258;4.436;2022-08-23T10:03:41;9.57;;;1.83;;
10100;SDS011;5090;51.258;4.436;2022-08-23T10:06:10;3.92;;;1.37;;
10100;SDS011;5090;51.258;4.436;2022-08-23T10:08:38;3.72;;;1.58;;
10100;SDS011;5090;51.258;4.436;2022-08-23T10:11:15;3.35;;;1.27;;
10100;SDS011;5090;51.258;4.436;2022-08-23T10:13:42;4.93;;;1.55;;
10100;SDS011;5090;51.258;4.436;2022-08-23T10:16:14;5.95;;;1.92;;
10100;SDS011;5090;51.258;4.436;2022-08-23T10:18:49;13.98;;;1.98;;
10100;SDS011;5090;51.258;4.436;2022-08-23T10:21:20;8.43;;;1.80;;
10100;SDS011;5090;51.258;4.436;2022-08-23T10:24:19;6.95;;;1.58;;
10100;SDS011;5090;51.258;4.436;2022-08-23T10:26:30;3.17;;;0.90;;
10100;SDS011;5090;51.258;4.436;2022-08-23T10:29:07;2.90;;;1.08;;
10100;SDS011;5090;51.258;4.436;2022-08-23T10:34:23;3.58;;;1.30;;
10100;SDS011;5090;51.258;4.436;2022-08-23T10:39:31;3.08;;;1.30;;
10100;SDS011;5090;51.258;4.436;2022-08-23T10:42:04;5.62;;;1.20;;
10100;SDS011;5090;51.258;4.436;2022-08-23T10:44:37;6.85;;;1.23;;
10100;SDS011;5090;51.258;4.436;2022-08-23T10:47:06;3.12;;;1.20;;
10100;SDS011;5090;51.258;4.436;2022-08-23T10:49:32;5.20;;;1.12;;
10100;SDS011;5090;51.258;4.436;2022-08-23T10:51:59;4.20;;;1.08;;
10100;SDS011;5090;51.258;4.436;2022-08-23T10:54:29;2.60;;;0.88;;
10100;SDS011;5090;51.258;4.436;2022-08-23T10:56:56;3.53;;;1.15;;
10100;SDS011;5090;51.258;4.436;2022-08-23T10:59:25;4.62;;;1.23;;
10100;SDS011;5090;51.258;4.436;2022-08-23T11:01:57;3.47;;;1.17;;
10100;SDS011;5090;51.258;4.436;2022-08-23T11:04:37;4.50;;;1.20;;
10100;SDS011;5090;51.258;4.436;2022-08-23T11:09:46;4.00;;;1.00;;
10100;SDS011;5090;51.258;4.436;2022-08-23T11:12:27;5.45;;;1.70;;
10100;SDS011;5090;51.258;4.436;2022-08-23T11:15:07;3.55;;;1.75;;
10100;SDS011;5090;51.258;4.436;2022-08-23T11:17:52;8.65;;;2.40;;
10100;SDS011;5090;51.258;4.436;2022-08-23T11:20:53;9.43;;;1.90;;
10100;SDS011;5090;51.258;4.436;2022-08-23T11:28:29;5.30;;;1.70;;
10100;SDS011;5090;51.258;4.436;2022-08-23T11:30:45;8.25;;;2.35;;
10100;SDS011;5090;51.258;4.436;2022-08-23T11:33:14;8.02;;;2.25;;
10100;SDS011;5090;51.258;4.436;2022-08-23T11:35:44;6.55;;;1.80;;
10100;SDS011;5090;51.258;4.436;2022-08-23T11:38:12;5.62;;;1.62;;
10100;SDS011;5090;51.258;4.436;2022-08-23T11:40:56;4.93;;;1.70;;
10100;SDS011;5090;51.258;4.436;2022-08-23T11:43:26;3.87;;;1.20;;
10100;SDS011;5090;51.258;4.436;2022-08-23T11:45:53;3.42;;;1.30;;
10100;SDS011;5090;51.258;4.436;2022-08-23T11:48:34;3.30;;;1.37;;
10100;SDS011;5090;51.258;4.436;2022-08-23T11:51:00;4.10;;;1.17;;
10100;SDS011;5090;51.258;4.436;2022-08-23T11:56:51;5.20;;;0.98;;
10100;SDS011;5090;51.258;4.436;2022-08-23T12:01:33;1.92;;;0.70;;
10100;SDS011;5090;51.258;4.436;2022-08-23T12:04:03;2.80;;;0.70;;
10100;SDS011;5090;51.258;4.436;2022-08-23T12:06:36;2.95;;;0.85;;
10100;SDS011;5090;51.258;4.436;2022-08-23T12:09:10;2.35;;;0.70;;
10100;SDS011;5090;51.258;4.436;2022-08-23T12:16:48;1.95;;;0.80;;
10100;SDS011;5090;51.258;4.436;2022-08-23T12:19:18;4.55;;;0.60;;
10100;SDS011;5090;51.258;4.436;2022-08-23T12:21:47;1.55;;;0.32;;
10100;SDS011;5090;51.258;4.436;2022-08-23T12:24:16;3.05;;;0.70;;
10100;SDS011;5090;51.258;4.436;2022-08-23T12:26:47;3.08;;;0.75;;
10100;SDS011;5090;51.258;4.436;2022-08-23T12:32:58;9.25;;;0.60;;
10100;SDS011;5090;51.258;4.436;2022-08-23T12:34:40;1.08;;;0.30;;
10100;SDS011;5090;51.258;4.436;2022-08-23T12:37:06;2.17;;;0.40;;
10100;SDS011;5090;51.258;4.436;2022-08-23T12:39:33;0.95;;;0.50;;
10100;SDS011;5090;51.258;4.436;2022-08-23T12:42:08;1.60;;;0.50;;
10100;SDS011;5090;51.258;4.436;2022-08-23T12:44:33;4.05;;;0.80;;
10100;SDS011;5090;51.258;4.436;2022-08-23T12:47:08;0.73;;;0.40;;
10100;SDS011;5090;51.258;4.436;2022-08-23T12:49:36;0.80;;;0.40;;
10100;SDS011;5090;51.258;4.436;2022-08-23T12:52:06;1.27;;;0.43;;
10100;SDS011;5090;51.258;4.436;2022-08-23T12:54:35;2.83;;;0.60;;
10100;SDS011;5090;51.258;4.436;2022-08-23T12:57:01;0.85;;;0.60;;
10100;SDS011;5090;51.258;4.436;2022-08-23T12:59:32;2.03;;;0.40;;
10100;SDS011;5090;51.258;4.436;2022-08-23T13:01:59;1.67;;;0.40;;
10100;SDS011;5090;51.258;4.436;2022-08-23T13:04:26;3.50;;;0.57;;
10100;SDS011;5090;51.258;4.436;2022-08-23T13:06:56;1.20;;;0.50;;
10100;SDS011;5090;51.258;4.436;2022-08-23T13:09:24;5.50;;;0.50;;
10100;SDS011;5090;51.258;4.436;2022-08-23T13:11:51;1.08;;;0.65;;
10100;SDS011;5090;51.258;4.436;2022-08-23T13:14:23;2.37;;;0.45;;
10100;SDS011;5090;51.258;4.436;2022-08-23T13:16:51;1.50;;;0.50;;
10100;SDS011;5090;51.258;4.436;2022-08-23T13:19:23;0.52;;;0.40;;
10100;SDS011;5090;51.258;4.436;2022-08-23T13:24:29;2.42;;;1.08;;
10100;SDS011;5090;51.258;4.436;2022-08-23T13:27:08;2.85;;;0.90;;
10100;SDS011;5090;51.258;4.436;2022-08-23T13:29:23;2.55;;;0.70;;
10100;SDS011;5090;51.258;4.436;2022-08-23T13:31:56;4.07;;;0.50;;
10100;SDS011;5090;51.258;4.436;2022-08-23T13:36:57;1.92;;;1.27;;
10100;SDS011;5090;51.258;4.436;2022-08-23T13:39:25;1.77;;;0.80;;
10100;SDS011;5090;51.258;4.436;2022-08-23T13:41:53;2.33;;;0.80;;
10100;SDS011;5090;51.258;4.436;2022-08-23T13:44:22;1.10;;;0.62;;
10100;SDS011;5090;51.258;4.436;2022-08-23T13:46:53;1.33;;;0.50;;
10100;SDS011;5090;51.258;4.436;2022-08-23T13:49:23;1.45;;;0.50;;
10100;SDS011;5090;51.258;4.436;2022-08-23T13:54:26;1.50;;;1.10;;
10100;SDS011;5090;51.258;4.436;2022-08-23T13:56:55;2.47;;;1.00;;
10100;SDS011;5090;51.258;4.436;2022-08-23T13:59:26;2.70;;;0.52;;
10100;SDS011;5090;51.258;4.436;2022-08-23T14:01:52;1.27;;;0.50;;
10100;SDS011;5090;51.258;4.436;2022-08-23T14:04:21;5.43;;;0.90;;
10100;SDS011;5090;51.258;4.436;2022-08-23T14:06:49;6.18;;;0.70;;
10100;SDS011;5090;51.258;4.436;2022-08-23T14:09:17;5.07;;;1.15;;
10100;SDS011;5090;51.258;4.436;2022-08-23T14:11:46;2.37;;;0.68;;
10100;SDS011;5090;51.258;4.436;2022-08-23T14:14:14;4.10;;;1.17;;
10100;SDS011;5090;51.258;4.436;2022-08-23T14:16:42;2.15;;;0.88;;
10100;SDS011;5090;51.258;4.436;2022-08-23T14:19:10;1.92;;;1.15;;
10100;SDS011;5090;51.258;4.436;2022-08-23T14:21:38;1.33;;;0.73;;
10100;SDS011;5090;51.258;4.436;2022-08-23T14:24:07;1.98;;;1.10;;
10100;SDS011;5090;51.258;4.436;2022-08-23T14:26:35;4.70;;;1.08;;
10100;SDS011;5090;51.258;4.436;2022-08-23T14:29:03;2.35;;;0.77;;
10100;SDS011;5090;51.258;4.436;2022-08-23T14:31:31;0.73;;;0.70;;
10100;SDS011;5090;51.258;4.436;2022-08-23T14:34:00;2.17;;;0.95;;
10100;SDS011;5090;51.258;4.436;2022-08-23T14:36:28;2.05;;;0.62;;
10100;SDS011;5090;51.258;4.436;2022-08-23T14:38:56;3.33;;;0.70;;
10100;SDS011;5090;51.258;4.436;2022-08-23T14:41:25;2.05;;;0.70;;
10100;SDS011;5090;51.258;4.436;2022-08-23T14:43:54;3.12;;;1.45;;
10100;SDS011;5090;51.258;4.436;2022-08-23T14:46:22;1.30;;;0.90;;
10100;SDS011;5090;51.258;4.436;2022-08-23T14:48:50;4.93;;;1.00;;
10100;SDS011;5090;51.258;4.436;2022-08-23T14:51:24;1.35;;;0.80;;
10100;SDS011;5090;51.258;4.436;2022-08-23T14:53:51;1.87;;;1.48;;
10100;SDS011;5090;51.258;4.436;2022-08-23T14:56:19;1.95;;;0.93;;
10100;SDS011;5090;51.258;4.436;2022-08-23T14:58:48;0.88;;;0.55;;
10100;SDS011;5090;51.258;4.436;2022-08-23T15:01:16;1.90;;;1.50;;
10100;SDS011;5090;51.258;4.436;2022-08-23T15:03:44;0.77;;;0.60;;
10100;SDS011;5090;51.258;4.436;2022-08-23T15:06:13;1.23;;;0.88;;
10100;SDS011;5090;51.258;4.436;2022-08-23T15:08:41;1.12;;;0.73;;
10100;SDS011;5090;51.258;4.436;2022-08-23T15:11:09;1.10;;;0.55;;
10100;SDS011;5090;51.258;4.436;2022-08-23T15:13:37;0.55;;;0.40;;
10100;SDS011;5090;51.258;4.436;2022-08-23T15:16:06;3.85;;;1.10;;
10100;SDS011;5090;51.258;4.436;2022-08-23T15:18:34;1.80;;;1.00;;
10100;SDS011;5090;51.258;4.436;2022-08-23T15:21:02;2.35;;;0.82;;
10100;SDS011;5090;51.258;4.436;2022-08-23T15:23:30;0.88;;;0.70;;
10100;SDS011;5090;51.258;4.436;2022-08-23T15:25:59;1.33;;;0.70;;
10100;SDS011;5090;51.258;4.436;2022-08-23T15:28:27;1.95;;;0.98;;
10100;SDS011;5090;51.258;4.436;2022-08-23T15:30:55;2.72;;;0.90;;
10100;SDS011;5090;51.258;4.436;2022-08-23T15:33:23;0.75;;;0.68;;
10100;SDS011;5090;51.258;4.436;2022-08-23T15:35:52;1.25;;;0.60;;
10100;SDS011;5090;51.258;4.436;2022-08-23T15:38:21;0.82;;;0.50;;
10100;SDS011;5090;51.258;4.436;2022-08-23T15:40:49;1.80;;;1.02;;
10100;SDS011;5090;51.258;4.436;2022-08-23T15:43:17;1.23;;;0.55;;
10100;SDS011;5090;51.258;4.436;2022-08-23T15:45:45;2.62;;;0.80;;